createdAt,value
2022-08-27T00:01:23.195Z,7.00
2022-08-27T00:03:50.593Z,7.88
2022-08-27T00:06:19.624Z,7.55
2022-08-27T00:08:48.162Z,7.85
2022-08-27T00:11:17.435Z,7.20
2022-08-27T00:13:44.908Z,8.10
2022-08-27T00:16:15.070Z,8.20
2022-08-27T00:18:47.942Z,7.90
2022-08-27T00:21:17.405Z,7.70
2022-08-27T00:23:44.926Z,9.05
2022-08-27T00:26:12.298Z,7.57
2022-08-27T00:28:40.112Z,8.65
2022-08-27T00:31:07.568Z,7.05
2022-08-27T00:33:36.886Z,7.80
2022-08-27T00:36:05.106Z,7.82
2022-08-27T00:38:32.194Z,7.32
2022-08-27T00:41:01.210Z,7.20
2022-08-27T00:43:32.124Z,6.87
2022-08-27T00:46:07.939Z,7.78
2022-08-27T00:48:36.725Z,7.55
2022-08-27T00:51:04.924Z,7.75
2022-08-27T00:53:33.868Z,7.38
2022-08-27T00:56:16.565Z,7.18
2022-08-27T00:58:51.810Z,6.40
2022-08-27T01:01:24.400Z,7.20
2022-08-27T01:04:03.757Z,6.47
2022-08-27T01:06:36.553Z,6.65
2022-08-27T01:09:09.676Z,7.00
2022-08-27T01:11:37.426Z,7.50
2022-08-27T01:14:05.443Z,6.72
2022-08-27T01:16:37.923Z,5.90
2022-08-27T01:19:18.695Z,8.18
2022-08-27T01:22:07.662Z,7.07
2022-08-27T01:24:45.658Z,6.93
2022-08-27T01:27:20.185Z,6.95
2022-08-27T01:29:47.609Z,7.07
2022-08-27T01:32:21.082Z,6.93
2022-08-27T01:34:48.675Z,7.22
2022-08-27T01:37:17.415Z,7.90
2022-08-27T01:39:51.542Z,7.35
2022-08-27T01:42:38.927Z,8.40
2022-08-27T01:45:12.013Z,7.63
2022-08-27T01:47:39.620Z,8.35
2022-08-27T01:50:19.135Z,9.95
2022-08-27T01:52:46.887Z,9.65
2022-08-27T01:55:18.633Z,8.20
2022-08-27T01:57:46.628Z,9.48
2022-08-27T02:00:25.183Z,9.25
2022-08-27T02:02:52.928Z,9.73
2022-08-27T02:05:20.216Z,9.80
2022-08-27T02:07:47.633Z,9.18
2022-08-27T02:10:22.283Z,9.45
2022-08-27T02:12:49.708Z,9.27
2022-08-27T02:15:17.518Z,8.38
2022-08-27T02:17:44.448Z,9.00
2022-08-27T02:20:12.009Z,9.43
2022-08-27T02:22:39.040Z,9.52
2022-08-27T02:25:10.188Z,9.05
2022-08-27T02:27:37.942Z,8.80
2022-08-27T02:30:06.570Z,9.05
2022-08-27T02:32:33.890Z,8.75
2022-08-27T02:35:03.695Z,9.93
2022-08-27T02:37:31.875Z,8.75
2022-08-27T02:39:59.491Z,8.90
2022-08-27T02:42:26.687Z,8.55
2022-08-27T02:44:54.991Z,7.88
2022-08-27T02:47:22.334Z,9.40
2022-08-27T02:49:49.504Z,8.65
2022-08-27T02:52:16.956Z,9.25
2022-08-27T02:54:52.381Z,8.55
2022-08-27T02:57:19.714Z,8.32
2022-08-27T02:59:46.973Z,9.10
2022-08-27T03:02:14.768Z,9.85
2022-08-27T03:04:43.200Z,7.85
2022-08-27T03:07:13.632Z,9.48
2022-08-27T03:09:46.489Z,10.43
2022-08-27T03:12:13.813Z,9.57
2022-08-27T03:14:40.916Z,8.77
2022-08-27T03:17:26.346Z,8.43
2022-08-27T03:19:54.418Z,8.48
2022-08-27T03:22:23.840Z,10.27
2022-08-27T03:24:50.842Z,9.52
2022-08-27T03:27:17.925Z,10.27
2022-08-27T03:29:45.241Z,8.57
2022-08-27T03:32:12.237Z,8.48
2022-08-27T03:34:39.238Z,8.75
2022-08-27T03:37:06.565Z,8.20
2022-08-27T03:39:33.834Z,8.70
2022-08-27T03:42:00.997Z,9.75
2022-08-27T03:44:28.043Z,9.35
2022-08-27T03:46:55.459Z,9.80
2022-08-27T03:49:23.653Z,10.18
2022-08-27T03:51:52.441Z,8.70
2022-08-27T03:54:20.225Z,9.95
2022-08-27T03:56:47.446Z,10.02
2022-08-27T03:59:15.943Z,9.80
2022-08-27T04:01:44.850Z,11.70
2022-08-27T04:04:13.249Z,8.90
2022-08-27T04:06:41.020Z,9.77
2022-08-27T04:09:08.306Z,9.38
2022-08-27T04:11:35.984Z,9.75
2022-08-27T04:14:25.364Z,9.57
2022-08-27T04:16:57.360Z,10.00
2022-08-27T04:19:28.572Z,9.35
2022-08-27T04:24:37.118Z,9.90
2022-08-27T04:27:05.832Z,9.55
2022-08-27T04:29:33.664Z,9.05
2022-08-27T04:32:01.455Z,8.80
2022-08-27T04:34:28.642Z,10.32
2022-08-27T04:36:57.330Z,9.93
2022-08-27T04:39:28.368Z,8.70
2022-08-27T04:41:58.721Z,9.02
2022-08-27T04:44:30.251Z,9.77
2022-08-27T04:47:01.269Z,8.80
2022-08-27T04:49:30.350Z,8.88
2022-08-27T04:51:59.125Z,9.32
2022-08-27T04:54:32.392Z,7.63
2022-08-27T04:57:04.032Z,8.23
2022-08-27T04:59:32.919Z,9.05
2022-08-27T05:02:03.549Z,8.68
2022-08-27T05:04:32.402Z,7.80
2022-08-27T05:07:00.682Z,8.48
2022-08-27T05:09:27.929Z,7.68
2022-08-27T05:11:56.403Z,8.13
2022-08-27T05:14:25.419Z,8.32
2022-08-27T05:16:52.457Z,8.35
2022-08-27T05:19:19.481Z,7.63
2022-08-27T05:21:49.294Z,7.85
2022-08-27T05:24:17.760Z,8.20
2022-08-27T05:26:45.570Z,7.75
2022-08-27T05:29:13.445Z,8.00
2022-08-27T05:31:42.392Z,7.68
2022-08-27T05:34:14.061Z,8.30
2022-08-27T05:36:48.185Z,7.90
2022-08-27T05:39:18.010Z,7.80
2022-08-27T05:41:45.373Z,7.78
2022-08-27T05:47:00.142Z,7.72
2022-08-27T05:49:33.935Z,8.18
2022-08-27T05:52:01.370Z,8.40
2022-08-27T05:54:28.861Z,8.45
2022-08-27T05:56:55.955Z,7.65
2022-08-27T05:59:42.161Z,9.75
2022-08-27T06:02:09.526Z,7.50
2022-08-27T06:04:37.221Z,8.38
2022-08-27T06:07:04.760Z,8.70
2022-08-27T06:09:32.269Z,10.35
2022-08-27T06:12:05.233Z,9.77
2022-08-27T06:14:36.281Z,9.60
2022-08-27T06:17:05.055Z,10.50
2022-08-27T06:19:32.273Z,10.68
2022-08-27T06:22:11.678Z,10.30
2022-08-27T06:27:10.175Z,11.43
2022-08-27T06:29:37.515Z,11.68
2022-08-27T06:32:05.477Z,10.57
2022-08-27T06:34:33.735Z,11.57
2022-08-27T06:37:00.795Z,10.32
2022-08-27T06:39:28.792Z,9.60
2022-08-27T06:41:58.827Z,9.82
2022-08-27T06:44:26.184Z,8.60
2022-08-27T06:46:53.067Z,9.60
2022-08-27T06:49:20.028Z,10.40
2022-08-27T06:51:48.154Z,10.20
2022-08-27T06:54:16.792Z,10.07
2022-08-27T06:56:44.660Z,10.93
2022-08-27T06:59:16.169Z,10.30
2022-08-27T07:01:47.278Z,8.95
2022-08-27T07:06:49.991Z,8.85
2022-08-27T07:09:17.572Z,10.23
2022-08-27T07:11:45.170Z,7.88
2022-08-27T07:14:12.411Z,8.45
2022-08-27T07:16:40.949Z,8.48
2022-08-27T07:19:08.241Z,8.00
2022-08-27T07:21:36.555Z,7.70
2022-08-27T07:24:05.635Z,8.93
2022-08-27T07:26:36.550Z,8.50
2022-08-27T07:29:07.096Z,8.77
2022-08-27T07:31:35.825Z,7.60
2022-08-27T07:34:04.695Z,8.20
2022-08-27T07:36:32.975Z,7.75
2022-08-27T07:39:01.665Z,8.27
2022-08-27T07:41:32.032Z,7.55
2022-08-27T07:44:21.270Z,8.02
2022-08-27T07:46:58.737Z,8.15
2022-08-27T07:49:28.481Z,8.75
2022-08-27T07:51:55.692Z,8.85
2022-08-27T07:54:23.448Z,8.00
2022-08-27T07:56:54.809Z,8.35
2022-08-27T07:59:27.450Z,7.05
2022-08-27T08:01:56.274Z,7.53
2022-08-27T08:04:24.339Z,6.95
2022-08-27T08:06:51.859Z,7.18
2022-08-27T08:09:22.303Z,6.95
2022-08-27T08:11:50.711Z,6.57
2022-08-27T08:14:19.712Z,6.40
2022-08-27T08:16:47.706Z,6.40
2022-08-27T08:19:17.272Z,6.72
2022-08-27T08:21:44.332Z,6.93
2022-08-27T08:24:11.592Z,7.70
2022-08-27T08:26:38.814Z,6.53
2022-08-27T08:29:06.217Z,7.43
2022-08-27T08:31:33.451Z,6.68
2022-08-27T08:34:00.979Z,7.85
2022-08-27T08:36:28.022Z,6.70
2022-08-27T08:38:55.794Z,7.03
2022-08-27T08:41:43.067Z,7.63
2022-08-27T08:44:54.305Z,6.90
2022-08-27T08:47:33.251Z,7.30
2022-08-27T08:50:23.142Z,7.13
2022-08-27T08:53:06.880Z,8.57
2022-08-27T08:55:56.029Z,7.82
2022-08-27T08:58:45.281Z,7.72
2022-08-27T09:01:16.887Z,7.43
2022-08-27T09:03:57.319Z,7.80
2022-08-27T09:06:36.835Z,7.63
2022-08-27T09:09:23.533Z,6.53
2022-08-27T09:12:06.095Z,6.35
2022-08-27T09:14:46.245Z,7.32
2022-08-27T09:17:13.858Z,6.78
2022-08-27T09:19:41.617Z,6.85
2022-08-27T09:22:30.034Z,6.70
2022-08-27T09:25:06.943Z,6.55
2022-08-27T09:27:41.719Z,7.45
2022-08-27T09:30:13.545Z,8.20
2022-08-27T09:32:41.698Z,9.23
2022-08-27T09:35:13.056Z,8.75
2022-08-27T09:37:46.578Z,7.47
2022-08-27T09:40:40.331Z,8.27
2022-08-27T09:43:23.247Z,7.55
2022-08-27T09:45:58.073Z,7.50
2022-08-27T09:48:31.813Z,7.35
2022-08-27T09:51:08.971Z,7.07
2022-08-27T09:53:50.962Z,7.75
2022-08-27T09:56:40.824Z,7.18
2022-08-27T09:59:10.333Z,7.10
2022-08-27T10:02:22.437Z,6.70
2022-08-27T10:04:58.944Z,6.85
2022-08-27T10:07:32.032Z,7.78
2022-08-27T10:10:37.444Z,7.68
2022-08-27T10:13:52.925Z,7.68
2022-08-27T10:16:48.329Z,7.18
2022-08-27T10:19:49.681Z,7.53
2022-08-27T10:22:41.381Z,6.63
2022-08-27T10:25:42.311Z,7.03
2022-08-27T10:28:30.730Z,8.02
2022-08-27T10:31:39.119Z,7.50
2022-08-27T10:34:22.314Z,6.45
2022-08-27T10:37:43.626Z,6.55
2022-08-27T10:40:19.979Z,6.30
2022-08-27T10:43:11.769Z,5.50
2022-08-27T10:45:54.658Z,6.43
2022-08-27T10:48:29.724Z,6.88
2022-08-27T10:51:15.858Z,7.65
2022-08-27T10:54:13.813Z,5.88
2022-08-27T10:56:47.329Z,5.47
2022-08-27T10:59:33.690Z,5.85
2022-08-27T11:02:31.620Z,5.85
2022-08-27T11:05:14.804Z,6.82
2022-08-27T11:07:58.475Z,6.70
2022-08-27T11:10:31.823Z,6.07
2022-08-27T11:13:11.102Z,6.38
2022-08-27T11:15:44.244Z,6.40
2022-08-27T11:18:18.525Z,5.75
2022-08-27T11:20:59.983Z,5.88
2022-08-27T11:24:00.762Z,6.07
2022-08-27T11:26:31.663Z,5.20
2022-08-27T11:29:37.723Z,5.68
2022-08-27T11:32:52.614Z,5.65
2022-08-27T11:35:32.188Z,5.75
2022-08-27T11:38:51.655Z,5.15
2022-08-27T11:41:45.219Z,4.82
2022-08-27T11:44:14.641Z,5.30
2022-08-27T11:47:08.922Z,4.45
2022-08-27T11:49:47.427Z,5.07
2022-08-27T11:52:29.305Z,4.35
2022-08-27T11:55:29.760Z,4.95
2022-08-27T11:58:17.750Z,4.30
2022-08-27T12:00:46.495Z,4.22
2022-08-27T12:03:19.930Z,4.20
2022-08-27T12:05:54.246Z,4.40
2022-08-27T12:08:24.839Z,3.85
2022-08-27T12:11:22.912Z,4.55
2022-08-27T12:14:17.965Z,3.00
2022-08-27T12:17:18.311Z,2.88
2022-08-27T12:20:08.635Z,3.53
2022-08-27T12:23:12.094Z,3.20
2022-08-27T12:25:39.246Z,3.20
2022-08-27T12:28:09.353Z,3.42
2022-08-27T12:30:39.501Z,3.65
2022-08-27T12:33:18.368Z,2.80
2022-08-27T12:35:50.092Z,3.00
2022-08-27T12:38:21.008Z,3.15
2022-08-27T12:40:55.347Z,2.70
2022-08-27T12:43:28.866Z,2.60
2022-08-27T12:46:17.264Z,3.33
2022-08-27T12:48:52.196Z,3.40
2022-08-27T12:51:33.893Z,2.63
2022-08-27T12:54:41.013Z,2.38
2022-08-27T12:57:44.990Z,2.92
2022-08-27T13:00:26.690Z,3.00
2022-08-27T13:03:08.914Z,2.47
2022-08-27T13:05:43.101Z,2.88
2022-08-27T13:08:21.718Z,2.75
2022-08-27T13:10:50.361Z,2.42
2022-08-27T13:13:25.337Z,3.83
2022-08-27T13:15:58.583Z,3.40
2022-08-27T13:18:29.911Z,3.13
2022-08-27T13:21:14.494Z,4.05
2022-08-27T13:23:54.182Z,3.22
2022-08-27T13:26:29.673Z,3.38
